sensor_id;sensor_type;location;lat;lon;timestamp;P1;durP1;ratioP1;P2;durP2;ratioP2
19879;SDS011;10102;50.828;4.416;2023-04-15T00:00:57;5.28;;;3.67;;
19879;SDS011;10102;50.828;4.416;2023-04-15T00:03:23;6.93;;;3.63;;
19879;SDS011;10102;50.828;4.416;2023-04-15T00:05:49;6.93;;;3.63;;
19879;SDS011;10102;50.828;4.416;2023-04-15T00:08:15;18.00;;;3.88;;
19879;SDS011;10102;50.828;4.416;2023-04-15T00:10:40;5.95;;;3.35;;
19879;SDS011;10102;50.828;4.416;2023-04-15T00:13:08;6.00;;;3.55;;
19879;SDS011;10102;50.828;4.416;2023-04-15T00:15:34;6.38;;;3.60;;
19879;SDS011;10102;50.828;4.416;2023-04-15T00:17:59;9.57;;;3.30;;
19879;SDS011;10102;50.828;4.416;2023-04-15T00:20:26;4.72;;;2.92;;
19879;SDS011;10102;50.828;4.416;2023-04-15T00:22:52;5.30;;;3.83;;
19879;SDS011;10102;50.828;4.416;2023-04-15T00:25:18;5.88;;;3.50;;
19879;SDS011;10102;50.828;4.416;2023-04-15T00:27:44;5.68;;;3.67;;
19879;SDS011;10102;50.828;4.416;2023-04-15T00:30:10;6.75;;;3.50;;
19879;SDS011;10102;50.828;4.416;2023-04-15T00:32:35;6.60;;;3.50;;
19879;SDS011;10102;50.828;4.416;2023-04-15T00:35:01;7.85;;;3.55;;
19879;SDS011;10102;50.828;4.416;2023-04-15T00:37:28;5.57;;;3.65;;
19879;SDS011;10102;50.828;4.416;2023-04-15T00:39:53;4.78;;;3.65;;
19879;SDS011;10102;50.828;4.416;2023-04-15T00:42:19;5.25;;;3.65;;
19879;SDS011;10102;50.828;4.416;2023-04-15T00:44:46;7.50;;;3.47;;
19879;SDS011;10102;50.828;4.416;2023-04-15T00:47:11;6.55;;;3.53;;
19879;SDS011;10102;50.828;4.416;2023-04-15T00:49:38;6.85;;;3.63;;
19879;SDS011;10102;50.828;4.416;2023-04-15T00:52:04;4.28;;;3.22;;
19879;SDS011;10102;50.828;4.416;2023-04-15T00:54:30;6.00;;;3.67;;
19879;SDS011;10102;50.828;4.416;2023-04-15T00:56:55;7.45;;;3.67;;
19879;SDS011;10102;50.828;4.416;2023-04-15T00:59:22;5.80;;;3.30;;
19879;SDS011;10102;50.828;4.416;2023-04-15T01:01:47;4.95;;;3.58;;
19879;SDS011;10102;50.828;4.416;2023-04-15T01:04:14;6.03;;;3.53;;
19879;SDS011;10102;50.828;4.416;2023-04-15T01:06:40;5.85;;;3.58;;
19879;SDS011;10102;50.828;4.416;2023-04-15T01:09:06;6.30;;;2.97;;
19879;SDS011;10102;50.828;4.416;2023-04-15T01:11:31;6.82;;;3.38;;
19879;SDS011;10102;50.828;4.416;2023-04-15T01:13:58;3.85;;;2.80;;
19879;SDS011;10102;50.828;4.416;2023-04-15T01:16:24;7.22;;;2.83;;
19879;SDS011;10102;50.828;4.416;2023-04-15T01:18:51;4.30;;;2.92;;
19879;SDS011;10102;50.828;4.416;2023-04-15T01:21:17;3.47;;;2.50;;
19879;SDS011;10102;50.828;4.416;2023-04-15T01:23:44;2.95;;;2.33;;
19879;SDS011;10102;50.828;4.416;2023-04-15T01:26:12;3.65;;;2.35;;
19879;SDS011;10102;50.828;4.416;2023-04-15T01:28:38;4.57;;;2.83;;
19879;SDS011;10102;50.828;4.416;2023-04-15T01:31:07;8.43;;;2.65;;
19879;SDS011;10102;50.828;4.416;2023-04-15T01:33:34;3.05;;;2.55;;
19879;SDS011;10102;50.828;4.416;2023-04-15T01:36:01;4.82;;;2.50;;
19879;SDS011;10102;50.828;4.416;2023-04-15T01:38:27;3.58;;;2.55;;
19879;SDS011;10102;50.828;4.416;2023-04-15T01:40:54;3.25;;;2.33;;
19879;SDS011;10102;50.828;4.416;2023-04-15T01:43:19;3.53;;;1.92;;
19879;SDS011;10102;50.828;4.416;2023-04-15T01:45:45;4.57;;;2.50;;
19879;SDS011;10102;50.828;4.416;2023-04-15T01:48:11;7.30;;;2.20;;
19879;SDS011;10102;50.828;4.416;2023-04-15T01:50:36;2.60;;;2.33;;
19879;SDS011;10102;50.828;4.416;2023-04-15T01:53:02;3.03;;;2.28;;
19879;SDS011;10102;50.828;4.416;2023-04-15T01:55:28;3.72;;;2.38;;
19879;SDS011;10102;50.828;4.416;2023-04-15T01:57:54;3.80;;;2.33;;
19879;SDS011;10102;50.828;4.416;2023-04-15T02:00:20;5.03;;;2.72;;
19879;SDS011;10102;50.828;4.416;2023-04-15T02:02:47;5.20;;;2.45;;
19879;SDS011;10102;50.828;4.416;2023-04-15T02:05:13;6.75;;;2.50;;
19879;SDS011;10102;50.828;4.416;2023-04-15T02:07:40;2.78;;;2.13;;
19879;SDS011;10102;50.828;4.416;2023-04-15T02:10:07;2.75;;;1.83;;
19879;SDS011;10102;50.828;4.416;2023-04-15T02:12:33;2.72;;;1.90;;
19879;SDS011;10102;50.828;4.416;2023-04-15T02:14:59;3.55;;;1.85;;
19879;SDS011;10102;50.828;4.416;2023-04-15T02:17:24;2.60;;;1.90;;
19879;SDS011;10102;50.828;4.416;2023-04-15T02:19:50;3.53;;;1.95;;
19879;SDS011;10102;50.828;4.416;2023-04-15T02:22:16;2.90;;;1.80;;
19879;SDS011;10102;50.828;4.416;2023-04-15T02:24:42;3.10;;;2.17;;
19879;SDS011;10102;50.828;4.416;2023-04-15T02:27:08;2.78;;;2.10;;
19879;SDS011;10102;50.828;4.416;2023-04-15T02:29:34;2.22;;;1.92;;
19879;SDS011;10102;50.828;4.416;2023-04-15T02:31:59;3.47;;;1.80;;
19879;SDS011;10102;50.828;4.416;2023-04-15T02:34:25;3.03;;;1.73;;
19879;SDS011;10102;50.828;4.416;2023-04-15T02:36:51;2.85;;;2.55;;
19879;SDS011;10102;50.828;4.416;2023-04-15T02:39:21;4.32;;;2.22;;
19879;SDS011;10102;50.828;4.416;2023-04-15T02:41:47;3.80;;;2.88;;
19879;SDS011;10102;50.828;4.416;2023-04-15T02:44:16;7.00;;;3.10;;
19879;SDS011;10102;50.828;4.416;2023-04-15T02:46:46;5.07;;;2.53;;
19879;SDS011;10102;50.828;4.416;2023-04-15T02:49:16;4.88;;;2.47;;
19879;SDS011;10102;50.828;4.416;2023-04-15T02:51:42;3.38;;;2.35;;
19879;SDS011;10102;50.828;4.416;2023-04-15T02:54:11;5.68;;;2.95;;
19879;SDS011;10102;50.828;4.416;2023-04-15T02:56:37;5.10;;;2.60;;
19879;SDS011;10102;50.828;4.416;2023-04-15T02:59:03;3.95;;;2.58;;
19879;SDS011;10102;50.828;4.416;2023-04-15T03:01:28;5.65;;;2.80;;
19879;SDS011;10102;50.828;4.416;2023-04-15T03:03:54;5.28;;;2.42;;
19879;SDS011;10102;50.828;4.416;2023-04-15T03:06:20;6.13;;;3.00;;
19879;SDS011;10102;50.828;4.416;2023-04-15T03:08:46;8.57;;;3.72;;
19879;SDS011;10102;50.828;4.416;2023-04-15T03:11:13;6.38;;;2.67;;
19879;SDS011;10102;50.828;4.416;2023-04-15T03:13:40;8.80;;;3.28;;
19879;SDS011;10102;50.828;4.416;2023-04-15T03:16:07;10.75;;;5.35;;
19879;SDS011;10102;50.828;4.416;2023-04-15T03:18:33;10.55;;;4.50;;
19879;SDS011;10102;50.828;4.416;2023-04-15T03:20:59;14.02;;;6.35;;
19879;SDS011;10102;50.828;4.416;2023-04-15T03:23:24;20.38;;;8.70;;
19879;SDS011;10102;50.828;4.416;2023-04-15T03:25:50;18.25;;;7.97;;
19879;SDS011;10102;50.828;4.416;2023-04-15T03:28:16;18.70;;;8.15;;
19879;SDS011;10102;50.828;4.416;2023-04-15T03:30:41;24.17;;;9.93;;
19879;SDS011;10102;50.828;4.416;2023-04-15T03:33:07;18.65;;;9.07;;
19879;SDS011;10102;50.828;4.416;2023-04-15T03:35:33;20.17;;;8.80;;
19879;SDS011;10102;50.828;4.416;2023-04-15T03:37:59;22.75;;;9.82;;
19879;SDS011;10102;50.828;4.416;2023-04-15T03:40:25;21.98;;;10.35;;
19879;SDS011;10102;50.828;4.416;2023-04-15T03:42:52;22.23;;;10.07;;
19879;SDS011;10102;50.828;4.416;2023-04-15T03:45:17;24.48;;;9.15;;
19879;SDS011;10102;50.828;4.416;2023-04-15T03:47:43;21.95;;;9.32;;
19879;SDS011;10102;50.828;4.416;2023-04-15T03:50:09;18.58;;;8.57;;
19879;SDS011;10102;50.828;4.416;2023-04-15T03:52:35;23.30;;;9.25;;
19879;SDS011;10102;50.828;4.416;2023-04-15T03:55:00;17.08;;;8.35;;
19879;SDS011;10102;50.828;4.416;2023-04-15T03:57:26;13.52;;;8.02;;
19879;SDS011;10102;50.828;4.416;2023-04-15T03:59:52;15.35;;;7.75;;
19879;SDS011;10102;50.828;4.416;2023-04-15T04:02:17;15.45;;;6.85;;
19879;SDS011;10102;50.828;4.416;2023-04-15T04:04:43;18.65;;;7.75;;
19879;SDS011;10102;50.828;4.416;2023-04-15T04:07:13;10.93;;;6.68;;
19879;SDS011;10102;50.828;4.416;2023-04-15T04:09:40;13.82;;;7.47;;
19879;SDS011;10102;50.828;4.416;2023-04-15T04:12:06;12.77;;;7.50;;
19879;SDS011;10102;50.828;4.416;2023-04-15T04:14:32;15.75;;;6.90;;
19879;SDS011;10102;50.828;4.416;2023-04-15T04:16:57;12.02;;;7.20;;
19879;SDS011;10102;50.828;4.416;2023-04-15T04:19:23;13.60;;;7.50;;
19879;SDS011;10102;50.828;4.416;2023-04-15T04:21:48;11.07;;;7.10;;
19879;SDS011;10102;50.828;4.416;2023-04-15T04:24:14;11.02;;;6.85;;
19879;SDS011;10102;50.828;4.416;2023-04-15T04:26:40;11.55;;;6.68;;
19879;SDS011;10102;50.828;4.416;2023-04-15T04:29:06;13.02;;;7.00;;
19879;SDS011;10102;50.828;4.416;2023-04-15T04:31:32;12.98;;;6.60;;
19879;SDS011;10102;50.828;4.416;2023-04-15T04:33:58;9.50;;;6.50;;
19879;SDS011;10102;50.828;4.416;2023-04-15T04:36:24;9.45;;;6.00;;
19879;SDS011;10102;50.828;4.416;2023-04-15T04:38:50;9.18;;;6.28;;
19879;SDS011;10102;50.828;4.416;2023-04-15T04:41:16;9.48;;;5.55;;
19879;SDS011;10102;50.828;4.416;2023-04-15T04:43:42;9.52;;;6.00;;
19879;SDS011;10102;50.828;4.416;2023-04-15T04:46:08;9.93;;;6.05;;
19879;SDS011;10102;50.828;4.416;2023-04-15T04:48:34;10.40;;;6.40;;
19879;SDS011;10102;50.828;4.416;2023-04-15T04:51:00;15.93;;;6.53;;
19879;SDS011;10102;50.828;4.416;2023-04-15T04:53:26;11.77;;;5.80;;
19879;SDS011;10102;50.828;4.416;2023-04-15T04:55:52;13.65;;;6.03;;
19879;SDS011;10102;50.828;4.416;2023-04-15T04:58:18;9.48;;;6.10;;
19879;SDS011;10102;50.828;4.416;2023-04-15T05:00:43;10.55;;;6.03;;
19879;SDS011;10102;50.828;4.416;2023-04-15T05:03:09;9.75;;;6.00;;
19879;SDS011;10102;50.828;4.416;2023-04-15T05:05:35;8.95;;;6.47;;
19879;SDS011;10102;50.828;4.416;2023-04-15T05:08:03;8.73;;;6.38;;
19879;SDS011;10102;50.828;4.416;2023-04-15T05:10:29;11.02;;;6.47;;
19879;SDS011;10102;50.828;4.416;2023-04-15T05:12:56;13.57;;;6.28;;
19879;SDS011;10102;50.828;4.416;2023-04-15T05:15:21;10.68;;;5.78;;
19879;SDS011;10102;50.828;4.416;2023-04-15T05:17:47;9.48;;;5.78;;
19879;SDS011;10102;50.828;4.416;2023-04-15T05:20:12;9.63;;;6.18;;
19879;SDS011;10102;50.828;4.416;2023-04-15T05:22:38;9.98;;;6.28;;
19879;SDS011;10102;50.828;4.416;2023-04-15T05:25:04;11.85;;;5.82;;
19879;SDS011;10102;50.828;4.416;2023-04-15T05:27:30;9.93;;;6.18;;
19879;SDS011;10102;50.828;4.416;2023-04-15T05:29:55;11.43;;;6.10;;
19879;SDS011;10102;50.828;4.416;2023-04-15T05:32:21;10.75;;;5.82;;
19879;SDS011;10102;50.828;4.416;2023-04-15T05:34:47;8.15;;;5.65;;
19879;SDS011;10102;50.828;4.416;2023-04-15T05:37:13;10.27;;;5.50;;
19879;SDS011;10102;50.828;4.416;2023-04-15T05:39:38;9.82;;;6.07;;
19879;SDS011;10102;50.828;4.416;2023-04-15T05:42:04;13.18;;;6.88;;
19879;SDS011;10102;50.828;4.416;2023-04-15T05:44:30;9.52;;;6.38;;
19879;SDS011;10102;50.828;4.416;2023-04-15T05:46:56;11.23;;;6.38;;
19879;SDS011;10102;50.828;4.416;2023-04-15T05:49:22;13.20;;;6.93;;
19879;SDS011;10102;50.828;4.416;2023-04-15T05:51:48;10.85;;;6.10;;
19879;SDS011;10102;50.828;4.416;2023-04-15T05:54:14;10.38;;;6.28;;
19879;SDS011;10102;50.828;4.416;2023-04-15T05:56:40;9.15;;;6.70;;
19879;SDS011;10102;50.828;4.416;2023-04-15T05:59:05;12.75;;;6.65;;
19879;SDS011;10102;50.828;4.416;2023-04-15T06:01:32;10.77;;;6.35;;
19879;SDS011;10102;50.828;4.416;2023-04-15T06:03:58;11.10;;;7.00;;
19879;SDS011;10102;50.828;4.416;2023-04-15T06:06:24;15.60;;;7.07;;
19879;SDS011;10102;50.828;4.416;2023-04-15T06:08:51;13.00;;;7.40;;
19879;SDS011;10102;50.828;4.416;2023-04-15T06:11:17;13.07;;;7.20;;
19879;SDS011;10102;50.828;4.416;2023-04-15T06:13:45;14.38;;;6.63;;
19879;SDS011;10102;50.828;4.416;2023-04-15T06:16:11;17.27;;;7.38;;
19879;SDS011;10102;50.828;4.416;2023-04-15T06:18:37;21.45;;;7.07;;
19879;SDS011;10102;50.828;4.416;2023-04-15T06:21:03;10.20;;;6.43;;
19879;SDS011;10102;50.828;4.416;2023-04-15T06:23:29;16.20;;;7.05;;
19879;SDS011;10102;50.828;4.416;2023-04-15T06:26:00;8.70;;;6.53;;
19879;SDS011;10102;50.828;4.416;2023-04-15T06:28:25;20.98;;;7.05;;
19879;SDS011;10102;50.828;4.416;2023-04-15T06:30:52;14.30;;;6.53;;
19879;SDS011;10102;50.828;4.416;2023-04-15T06:33:19;13.15;;;6.68;;
19879;SDS011;10102;50.828;4.416;2023-04-15T06:35:44;15.77;;;7.47;;
19879;SDS011;10102;50.828;4.416;2023-04-15T06:38:11;14.13;;;6.97;;
19879;SDS011;10102;50.828;4.416;2023-04-15T06:40:38;14.77;;;8.48;;
19879;SDS011;10102;50.828;4.416;2023-04-15T06:43:04;9.77;;;6.15;;
19879;SDS011;10102;50.828;4.416;2023-04-15T06:45:29;10.65;;;6.43;;
19879;SDS011;10102;50.828;4.416;2023-04-15T06:47:56;10.85;;;5.97;;
19879;SDS011;10102;50.828;4.416;2023-04-15T06:50:21;15.38;;;6.13;;
19879;SDS011;10102;50.828;4.416;2023-04-15T06:52:47;10.82;;;6.35;;
19879;SDS011;10102;50.828;4.416;2023-04-15T06:55:13;11.77;;;6.28;;
19879;SDS011;10102;50.828;4.416;2023-04-15T06:57:38;12.82;;;6.55;;
19879;SDS011;10102;50.828;4.416;2023-04-15T07:00:04;14.15;;;6.05;;
19879;SDS011;10102;50.828;4.416;2023-04-15T07:02:31;11.93;;;5.88;;
19879;SDS011;10102;50.828;4.416;2023-04-15T07:04:57;12.88;;;6.60;;
19879;SDS011;10102;50.828;4.416;2023-04-15T07:07:23;9.82;;;5.40;;
19879;SDS011;10102;50.828;4.416;2023-04-15T07:09:49;12.90;;;6.55;;
19879;SDS011;10102;50.828;4.416;2023-04-15T07:12:17;14.45;;;6.57;;
19879;SDS011;10102;50.828;4.416;2023-04-15T07:14:43;13.00;;;6.15;;
19879;SDS011;10102;50.828;4.416;2023-04-15T07:17:09;12.73;;;6.07;;
19879;SDS011;10102;50.828;4.416;2023-04-15T07:19:35;10.40;;;6.38;;
19879;SDS011;10102;50.828;4.416;2023-04-15T07:22:01;12.40;;;6.45;;
19879;SDS011;10102;50.828;4.416;2023-04-15T07:24:27;8.38;;;5.93;;
19879;SDS011;10102;50.828;4.416;2023-04-15T07:26:53;13.85;;;6.53;;
19879;SDS011;10102;50.828;4.416;2023-04-15T07:29:21;11.98;;;6.05;;
19879;SDS011;10102;50.828;4.416;2023-04-15T07:31:47;12.02;;;6.32;;
19879;SDS011;10102;50.828;4.416;2023-04-15T07:34:13;11.80;;;6.07;;
19879;SDS011;10102;50.828;4.416;2023-04-15T07:36:39;14.65;;;6.35;;
19879;SDS011;10102;50.828;4.416;2023-04-15T07:39:04;10.57;;;6.00;;
19879;SDS011;10102;50.828;4.416;2023-04-15T07:41:30;13.02;;;6.43;;
19879;SDS011;10102;50.828;4.416;2023-04-15T07:43:56;14.02;;;7.40;;
19879;SDS011;10102;50.828;4.416;2023-04-15T07:46:21;11.93;;;6.80;;
19879;SDS011;10102;50.828;4.416;2023-04-15T07:48:48;11.55;;;7.28;;
19879;SDS011;10102;50.828;4.416;2023-04-15T07:51:15;11.70;;;7.15;;
19879;SDS011;10102;50.828;4.416;2023-04-15T07:53:41;14.93;;;7.53;;
19879;SDS011;10102;50.828;4.416;2023-04-15T07:56:08;13.90;;;7.78;;
19879;SDS011;10102;50.828;4.416;2023-04-15T07:58:34;13.38;;;8.02;;
19879;SDS011;10102;50.828;4.416;2023-04-15T08:01:01;14.30;;;7.55;;
19879;SDS011;10102;50.828;4.416;2023-04-15T08:03:28;16.67;;;8.07;;
19879;SDS011;10102;50.828;4.416;2023-04-15T08:05:54;14.15;;;8.55;;
19879;SDS011;10102;50.828;4.416;2023-04-15T08:08:19;20.05;;;8.48;;
19879;SDS011;10102;50.828;4.416;2023-04-15T08:10:45;11.30;;;8.23;;
19879;SDS011;10102;50.828;4.416;2023-04-15T08:13:11;13.55;;;9.48;;
19879;SDS011;10102;50.828;4.416;2023-04-15T08:15:36;13.95;;;9.57;;
19879;SDS011;10102;50.828;4.416;2023-04-15T08:18:02;13.50;;;9.48;;
19879;SDS011;10102;50.828;4.416;2023-04-15T08:20:28;15.10;;;9.15;;
19879;SDS011;10102;50.828;4.416;2023-04-15T08:22:54;14.55;;;8.40;;
19879;SDS011;10102;50.828;4.416;2023-04-15T08:25:20;17.50;;;9.23;;
19879;SDS011;10102;50.828;4.416;2023-04-15T08:27:45;16.33;;;9.70;;
19879;SDS011;10102;50.828;4.416;2023-04-15T08:30:11;16.20;;;9.18;;
19879;SDS011;10102;50.828;4.416;2023-04-15T08:32:38;12.93;;;8.93;;
19879;SDS011;10102;50.828;4.416;2023-04-15T08:35:04;16.55;;;9.45;;
19879;SDS011;10102;50.828;4.416;2023-04-15T08:37:29;17.15;;;9.63;;
19879;SDS011;10102;50.828;4.416;2023-04-15T08:39:55;18.60;;;10.15;;
19879;SDS011;10102;50.828;4.416;2023-04-15T08:42:29;18.25;;;9.75;;
19879;SDS011;10102;50.828;4.416;2023-04-15T08:44:58;16.83;;;9.80;;
19879;SDS011;10102;50.828;4.416;2023-04-15T08:47:25;16.55;;;9.52;;
19879;SDS011;10102;50.828;4.416;2023-04-15T08:49:55;17.35;;;9.93;;
19879;SDS011;10102;50.828;4.416;2023-04-15T08:52:25;17.90;;;10.05;;
19879;SDS011;10102;50.828;4.416;2023-04-15T08:54:52;17.48;;;9.05;;
19879;SDS011;10102;50.828;4.416;2023-04-15T08:57:24;17.92;;;10.00;;
19879;SDS011;10102;50.828;4.416;2023-04-15T08:59:51;20.65;;;10.20;;
19879;SDS011;10102;50.828;4.416;2023-04-15T09:02:18;14.60;;;9.52;;
19879;SDS011;10102;50.828;4.416;2023-04-15T09:04:43;21.50;;;9.77;;
19879;SDS011;10102;50.828;4.416;2023-04-15T09:07:09;16.42;;;9.95;;
19879;SDS011;10102;50.828;4.416;2023-04-15T09:09:35;19.13;;;9.88;;
19879;SDS011;10102;50.828;4.416;2023-04-15T09:12:04;15.63;;;9.68;;
19879;SDS011;10102;50.828;4.416;2023-04-15T09:14:29;17.13;;;9.88;;
19879;SDS011;10102;50.828;4.416;2023-04-15T09:17:00;14.63;;;9.18;;
19879;SDS011;10102;50.828;4.416;2023-04-15T09:19:27;17.67;;;10.02;;
19879;SDS011;10102;50.828;4.416;2023-04-15T09:21:53;11.75;;;8.38;;
19879;SDS011;10102;50.828;4.416;2023-04-15T09:24:23;16.38;;;8.88;;
19879;SDS011;10102;50.828;4.416;2023-04-15T09:26:51;14.15;;;8.27;;
19879;SDS011;10102;50.828;4.416;2023-04-15T09:29:18;12.55;;;7.32;;
19879;SDS011;10102;50.828;4.416;2023-04-15T09:31:44;9.77;;;6.35;;
19879;SDS011;10102;50.828;4.416;2023-04-15T09:34:10;9.10;;;6.03;;
19879;SDS011;10102;50.828;4.416;2023-04-15T09:36:55;14.80;;;5.80;;
19879;SDS011;10102;50.828;4.416;2023-04-15T09:39:21;11.63;;;6.20;;
19879;SDS011;10102;50.828;4.416;2023-04-15T09:42:02;14.23;;;8.30;;
19879;SDS011;10102;50.828;4.416;2023-04-15T09:44:31;8.90;;;6.20;;
19879;SDS011;10102;50.828;4.416;2023-04-15T09:46:57;8.88;;;6.40;;
19879;SDS011;10102;50.828;4.416;2023-04-15T09:49:23;7.57;;;6.07;;
19879;SDS011;10102;50.828;4.416;2023-04-15T09:51:49;13.23;;;6.70;;
19879;SDS011;10102;50.828;4.416;2023-04-15T09:54:18;8.70;;;6.25;;
19879;SDS011;10102;50.828;4.416;2023-04-15T09:56:45;8.65;;;6.18;;
19879;SDS011;10102;50.828;4.416;2023-04-15T09:59:11;7.97;;;6.35;;
19879;SDS011;10102;50.828;4.416;2023-04-15T10:01:37;7.93;;;6.03;;
19879;SDS011;10102;50.828;4.416;2023-04-15T10:04:03;10.77;;;6.07;;
19879;SDS011;10102;50.828;4.416;2023-04-15T10:06:30;8.85;;;5.40;;
19879;SDS011;10102;50.828;4.416;2023-04-15T10:08:56;8.95;;;5.93;;
19879;SDS011;10102;50.828;4.416;2023-04-15T10:11:23;6.82;;;4.78;;
19879;SDS011;10102;50.828;4.416;2023-04-15T10:13:49;9.25;;;5.30;;
19879;SDS011;10102;50.828;4.416;2023-04-15T10:16:16;8.75;;;4.57;;
19879;SDS011;10102;50.828;4.416;2023-04-15T10:18:46;8.35;;;5.53;;
19879;SDS011;10102;50.828;4.416;2023-04-15T10:21:18;8.55;;;4.63;;
19879;SDS011;10102;50.828;4.416;2023-04-15T10:23:46;9.85;;;5.22;;
19879;SDS011;10102;50.828;4.416;2023-04-15T10:26:13;7.53;;;5.05;;
19879;SDS011;10102;50.828;4.416;2023-04-15T10:28:41;5.97;;;4.28;;
19879;SDS011;10102;50.828;4.416;2023-04-15T10:31:11;7.10;;;5.00;;
19879;SDS011;10102;50.828;4.416;2023-04-15T10:33:39;10.10;;;4.38;;
19879;SDS011;10102;50.828;4.416;2023-04-15T10:36:07;5.78;;;4.70;;
19879;SDS011;10102;50.828;4.416;2023-04-15T10:38:34;10.60;;;4.75;;
19879;SDS011;10102;50.828;4.416;2023-04-15T10:51:32;5.78;;;3.63;;
19879;SDS011;10102;50.828;4.416;2023-04-15T10:53:58;5.00;;;3.97;;
19879;SDS011;10102;50.828;4.416;2023-04-15T10:56:24;8.63;;;3.70;;
19879;SDS011;10102;50.828;4.416;2023-04-15T10:58:52;9.20;;;3.83;;
19879;SDS011;10102;50.828;4.416;2023-04-15T11:01:18;5.30;;;3.60;;
19879;SDS011;10102;50.828;4.416;2023-04-15T11:03:47;4.85;;;2.80;;
19879;SDS011;10102;50.828;4.416;2023-04-15T11:06:13;7.18;;;2.63;;
19879;SDS011;10102;50.828;4.416;2023-04-15T11:08:55;5.63;;;3.30;;
19879;SDS011;10102;50.828;4.416;2023-04-15T11:11:23;5.05;;;3.28;;
19879;SDS011;10102;50.828;4.416;2023-04-15T11:14:13;6.35;;;3.50;;
19879;SDS011;10102;50.828;4.416;2023-04-15T11:16:42;3.72;;;2.30;;
19879;SDS011;10102;50.828;4.416;2023-04-15T11:19:12;3.30;;;2.40;;
19879;SDS011;10102;50.828;4.416;2023-04-15T11:21:37;3.85;;;2.72;;
19879;SDS011;10102;50.828;4.416;2023-04-15T11:24:03;4.60;;;2.80;;
19879;SDS011;10102;50.828;4.416;2023-04-15T11:26:29;2.28;;;2.08;;
19879;SDS011;10102;50.828;4.416;2023-04-15T11:28:55;4.28;;;3.33;;
19879;SDS011;10102;50.828;4.416;2023-04-15T11:31:21;5.38;;;3.33;;
19879;SDS011;10102;50.828;4.416;2023-04-15T11:33:54;4.72;;;3.50;;
19879;SDS011;10102;50.828;4.416;2023-04-15T11:36:25;6.63;;;3.17;;
19879;SDS011;10102;50.828;4.416;2023-04-15T11:38:52;4.43;;;3.15;;
19879;SDS011;10102;50.828;4.416;2023-04-15T11:41:22;5.53;;;2.63;;
19879;SDS011;10102;50.828;4.416;2023-04-15T11:43:48;3.25;;;2.78;;
19879;SDS011;10102;50.828;4.416;2023-04-15T11:46:14;5.03;;;3.55;;
19879;SDS011;10102;50.828;4.416;2023-04-15T11:48:43;4.55;;;2.80;;
19879;SDS011;10102;50.828;4.416;2023-04-15T11:51:10;3.45;;;2.92;;
19879;SDS011;10102;50.828;4.416;2023-04-15T11:56:06;2.83;;;2.05;;
19879;SDS011;10102;50.828;4.416;2023-04-15T11:58:33;2.72;;;1.95;;
19879;SDS011;10102;50.828;4.416;2023-04-15T12:01:02;4.55;;;2.22;;
19879;SDS011;10102;50.828;4.416;2023-04-15T12:06:13;5.07;;;2.58;;
19879;SDS011;10102;50.828;4.416;2023-04-15T12:14:11;3.47;;;2.60;;
19879;SDS011;10102;50.828;4.416;2023-04-15T12:16:52;3.65;;;3.30;;
19879;SDS011;10102;50.828;4.416;2023-04-15T12:19:24;6.82;;;3.67;;
19879;SDS011;10102;50.828;4.416;2023-04-15T12:22:01;5.95;;;3.80;;
19879;SDS011;10102;50.828;4.416;2023-04-15T12:24:33;5.78;;;3.50;;
19879;SDS011;10102;50.828;4.416;2023-04-15T12:29:30;4.65;;;2.50;;
19879;SDS011;10102;50.828;4.416;2023-04-15T12:31:57;4.72;;;3.10;;
19879;SDS011;10102;50.828;4.416;2023-04-15T12:34:30;5.47;;;2.60;;
19879;SDS011;10102;50.828;4.416;2023-04-15T12:36:57;3.13;;;2.45;;
19879;SDS011;10102;50.828;4.416;2023-04-15T12:39:24;3.38;;;2.33;;
19879;SDS011;10102;50.828;4.416;2023-04-15T12:41:51;2.50;;;1.80;;
19879;SDS011;10102;50.828;4.416;2023-04-15T12:44:17;4.82;;;2.38;;
19879;SDS011;10102;50.828;4.416;2023-04-15T12:46:43;3.88;;;2.08;;
19879;SDS011;10102;50.828;4.416;2023-04-15T12:49:10;7.05;;;2.38;;
19879;SDS011;10102;50.828;4.416;2023-04-15T12:51:35;3.35;;;2.20;;
19879;SDS011;10102;50.828;4.416;2023-04-15T12:54:01;4.78;;;2.60;;
19879;SDS011;10102;50.828;4.416;2023-04-15T12:56:27;4.80;;;2.20;;
19879;SDS011;10102;50.828;4.416;2023-04-15T12:58:53;4.60;;;2.10;;
19879;SDS011;10102;50.828;4.416;2023-04-15T13:01:19;2.33;;;2.13;;
19879;SDS011;10102;50.828;4.416;2023-04-15T13:03:45;4.13;;;2.85;;
19879;SDS011;10102;50.828;4.416;2023-04-15T13:06:12;3.28;;;2.53;;
19879;SDS011;10102;50.828;4.416;2023-04-15T13:08:37;3.25;;;2.53;;
19879;SDS011;10102;50.828;4.416;2023-04-15T13:11:03;3.30;;;2.10;;
19879;SDS011;10102;50.828;4.416;2023-04-15T13:13:29;4.05;;;2.20;;
19879;SDS011;10102;50.828;4.416;2023-04-15T13:15:56;2.38;;;1.67;;
19879;SDS011;10102;50.828;4.416;2023-04-15T13:18:22;3.03;;;2.10;;
19879;SDS011;10102;50.828;4.416;2023-04-15T13:20:48;2.92;;;2.30;;
19879;SDS011;10102;50.828;4.416;2023-04-15T13:23:14;5.65;;;2.65;;
19879;SDS011;10102;50.828;4.416;2023-04-15T13:25:41;3.42;;;2.40;;
19879;SDS011;10102;50.828;4.416;2023-04-15T13:28:07;4.10;;;2.38;;
19879;SDS011;10102;50.828;4.416;2023-04-15T13:30:36;3.92;;;2.20;;
19879;SDS011;10102;50.828;4.416;2023-04-15T13:33:02;4.10;;;2.63;;
19879;SDS011;10102;50.828;4.416;2023-04-15T13:35:28;5.90;;;2.97;;
19879;SDS011;10102;50.828;4.416;2023-04-15T13:37:54;8.15;;;2.40;;
19879;SDS011;10102;50.828;4.416;2023-04-15T13:40:20;3.47;;;2.55;;
19879;SDS011;10102;50.828;4.416;2023-04-15T13:42:46;2.58;;;2.30;;
19879;SDS011;10102;50.828;4.416;2023-04-15T13:45:12;4.60;;;2.33;;
19879;SDS011;10102;50.828;4.416;2023-04-15T13:47:38;2.78;;;2.10;;
19879;SDS011;10102;50.828;4.416;2023-04-15T13:50:05;4.85;;;2.45;;
19879;SDS011;10102;50.828;4.416;2023-04-15T13:52:31;8.48;;;2.13;;
19879;SDS011;10102;50.828;4.416;2023-04-15T13:54:56;4.65;;;2.40;;
19879;SDS011;10102;50.828;4.416;2023-04-15T13:57:22;4.65;;;2.40;;
19879;SDS011;10102;50.828;4.416;2023-04-15T13:59:48;3.53;;;2.28;;
19879;SDS011;10102;50.828;4.416;2023-04-15T14:02:13;2.90;;;1.73;;
19879;SDS011;10102;50.828;4.416;2023-04-15T14:04:39;4.35;;;2.20;;
19879;SDS011;10102;50.828;4.416;2023-04-15T14:07:04;3.92;;;1.58;;
19879;SDS011;10102;50.828;4.416;2023-04-15T14:09:30;5.65;;;2.00;;
19879;SDS011;10102;50.828;4.416;2023-04-15T14:11:56;2.83;;;1.60;;
19879;SDS011;10102;50.828;4.416;2023-04-15T14:14:23;3.95;;;1.80;;
19879;SDS011;10102;50.828;4.416;2023-04-15T14:16:49;2.78;;;1.88;;
19879;SDS011;10102;50.828;4.416;2023-04-15T14:19:15;3.00;;;2.25;;
19879;SDS011;10102;50.828;4.416;2023-04-15T14:21:41;7.35;;;2.80;;
19879;SDS011;10102;50.828;4.416;2023-04-15T14:24:06;3.42;;;2.13;;
19879;SDS011;10102;50.828;4.416;2023-04-15T14:26:32;4.93;;;2.38;;
19879;SDS011;10102;50.828;4.416;2023-04-15T14:28:58;5.70;;;2.15;;
19879;SDS011;10102;50.828;4.416;2023-04-15T14:31:24;4.00;;;1.90;;
19879;SDS011;10102;50.828;4.416;2023-04-15T14:33:50;3.10;;;1.30;;
19879;SDS011;10102;50.828;4.416;2023-04-15T14:36:15;2.35;;;0.90;;
19879;SDS011;10102;50.828;4.416;2023-04-15T14:38:41;3.75;;;1.10;;
19879;SDS011;10102;50.828;4.416;2023-04-15T14:41:07;2.03;;;1.10;;
19879;SDS011;10102;50.828;4.416;2023-04-15T14:43:34;2.00;;;0.85;;
19879;SDS011;10102;50.828;4.416;2023-04-15T14:45:59;3.70;;;1.15;;
19879;SDS011;10102;50.828;4.416;2023-04-15T14:48:25;2.28;;;0.85;;
19879;SDS011;10102;50.828;4.416;2023-04-15T14:50:52;4.28;;;1.48;;
19879;SDS011;10102;50.828;4.416;2023-04-15T14:53:18;4.35;;;1.25;;
19879;SDS011;10102;50.828;4.416;2023-04-15T14:55:43;4.25;;;1.30;;
19879;SDS011;10102;50.828;4.416;2023-04-15T14:58:10;1.73;;;1.17;;
19879;SDS011;10102;50.828;4.416;2023-04-15T15:00:36;2.15;;;0.90;;
19879;SDS011;10102;50.828;4.416;2023-04-15T15:03:05;4.35;;;1.35;;